Time;durP1;ratioP1;P1;durP2;ratioP2;P2;SDS_P1;SDS_P2;PMS_P1;PMS_P2;Temp;Humidity;BMP_temperature;BMP_pressure;BME280_temperature;BME280_humidity;BME280_pressure;Samples;Min_cycle;Max_cycle;Signal;HPM_P1;HPM_P2
2023/09/06 00:00:26;;;;;;;1.50;1.20;;;30.60;47.10;;;;;;5081986;27;88008;-55
2023/09/06 00:02:54;;;;;;;1.03;1.03;;;30.60;47.10;;;;;;5081102;27;89784;-55
2023/09/06 00:05:24;;;;;;;1.53;1.03;;;30.60;47.10;;;;;;5080455;27;88233;-56
2023/09/06 00:07:52;;;;;;;1.27;0.87;;;30.60;47.10;;;;;;5081504;27;89011;-56
2023/09/06 00:10:20;;;;;;;0.80;0.80;;;30.60;47.10;;;;;;5081595;27;87787;-55
2023/09/06 00:12:48;;;;;;;1.40;0.90;;;30.50;47.00;;;;;;5081012;27;88539;-55
2023/09/06 00:15:18;;;;;;;1.37;1.27;;;30.50;47.00;;;;;;5079901;27;89138;-55
2023/09/06 00:17:46;;;;;;;2.37;0.90;;;30.60;47.10;;;;;;5079294;27;88673;-56
2023/09/06 00:20:20;;;;;;;0.70;0.70;;;30.50;47.00;;;;;;5081672;27;87466;-56
2023/09/06 00:22:56;;;;;;;1.63;1.20;;;30.50;47.00;;;;;;5081481;27;88497;-56
2023/09/06 00:25:25;;;;;;;1.50;0.90;;;30.50;47.00;;;;;;5081109;27;88059;-56
2023/09/06 00:27:53;;;;;;;2.40;1.23;;;30.50;47.00;;;;;;5080170;27;87749;-56
2023/09/06 00:30:21;;;;;;;1.80;0.93;;;30.50;47.00;;;;;;5081112;27;87687;-55
2023/09/06 00:32:52;;;;;;;2.40;1.10;;;30.50;47.10;;;;;;5080511;27;89895;-55
2023/09/06 00:35:22;;;;;;;0.63;0.63;;;30.50;47.00;;;;;;5080018;27;89107;-55
2023/09/06 00:37:50;;;;;;;1.20;1.10;;;30.50;47.00;;;;;;5080265;27;87907;-55
2023/09/06 00:40:21;;;;;;;1.13;0.87;;;30.50;47.10;;;;;;5080194;27;87962;-55
2023/09/06 00:42:50;;;;;;;1.00;0.90;;;30.40;47.00;;;;;;5080265;27;89929;-55
2023/09/06 00:45:21;;;;;;;1.10;1.00;;;30.40;47.00;;;;;;5080946;27;88707;-55
2023/09/06 00:47:49;;;;;;;1.20;0.90;;;30.40;47.00;;;;;;5081215;27;87313;-55
2023/09/06 00:50:18;;;;;;;4.23;1.20;;;30.40;47.00;;;;;;5080346;27;87663;-56
2023/09/06 00:52:46;;;;;;;1.03;0.90;;;30.40;47.00;;;;;;5080599;27;88412;-56
2023/09/06 00:55:15;;;;;;;1.50;0.90;;;30.40;47.10;;;;;;5080743;27;88351;-55
2023/09/06 00:57:45;;;;;;;2.07;1.17;;;30.40;47.70;;;;;;5081199;27;87313;-55
2023/09/06 01:00:17;;;;;;;1.13;0.80;;;30.40;47.70;;;;;;5080229;27;87209;-56
2023/09/06 01:02:45;;;;;;;0.87;0.80;;;30.40;47.10;;;;;;5079657;27;90013;-56
2023/09/06 01:05:13;;;;;;;2.00;1.10;;;30.40;47.10;;;;;;5079776;27;90289;-56
2023/09/06 01:07:42;;;;;;;0.90;0.90;;;30.40;47.10;;;;;;5079884;27;89620;-56
2023/09/06 01:10:10;;;;;;;2.10;1.30;;;30.40;47.10;;;;;;5080477;27;87460;-56
2023/09/06 01:12:38;;;;;;;2.93;1.33;;;30.40;47.10;;;;;;5079323;27;88584;-55
2023/09/06 01:15:10;;;;;;;2.07;1.30;;;30.30;47.10;;;;;;5079899;27;88942;-56
2023/09/06 01:17:41;;;;;;;1.27;0.90;;;30.30;47.10;;;;;;5080443;27;87883;-55
2023/09/06 01:20:16;;;;;;;2.37;0.90;;;30.30;47.10;;;;;;5080639;27;87561;-55
2023/09/06 01:22:47;;;;;;;1.57;1.13;;;30.30;47.10;;;;;;5079667;27;88662;-56
2023/09/06 01:25:17;;;;;;;3.17;1.10;;;30.30;47.10;;;;;;5079881;27;89147;-56
2023/09/06 01:27:46;;;;;;;1.90;0.90;;;30.30;47.50;;;;;;5079824;27;87901;-56
2023/09/06 01:30:15;;;;;;;1.00;0.90;;;30.30;47.20;;;;;;5079942;27;88017;-56
2023/09/06 01:32:43;;;;;;;3.63;0.90;;;30.30;47.20;;;;;;5079448;27;89659;-56
2023/09/06 01:35:11;;;;;;;1.03;0.93;;;30.30;47.20;;;;;;5078839;27;89239;-55
2023/09/06 01:37:39;;;;;;;1.10;0.97;;;30.30;47.20;;;;;;5079022;27;88783;-56
2023/09/06 01:40:17;;;;;;;1.90;1.13;;;30.30;47.30;;;;;;5080964;27;87650;-55
2023/09/06 01:42:47;;;;;;;1.53;1.20;;;30.30;47.30;;;;;;5080706;27;87722;-55
2023/09/06 01:45:17;;;;;;;1.50;1.10;;;30.30;47.30;;;;;;5082041;27;88111;-55
2023/09/06 01:47:46;;;;;;;1.83;1.37;;;30.30;47.90;;;;;;5083446;27;88752;-55
2023/09/06 01:50:19;;;;;;;2.13;1.40;;;30.20;47.30;;;;;;5083240;27;87676;-55
2023/09/06 01:52:48;;;;;;;2.43;1.43;;;30.20;47.30;;;;;;5082287;27;89782;-56
2023/09/06 01:55:16;;;;;;;1.47;1.37;;;30.20;47.30;;;;;;5081772;27;88932;-55
2023/09/06 01:57:46;;;;;;;1.33;1.23;;;30.20;47.30;;;;;;5082943;27;88871;-56
2023/09/06 02:00:23;;;;;;;1.73;1.57;;;30.20;47.30;;;;;;5082719;27;87654;-55
2023/09/06 02:02:51;;;;;;;1.50;1.37;;;30.20;47.30;;;;;;5081166;27;89981;-55
2023/09/06 02:05:19;;;;;;;2.27;1.50;;;30.20;47.30;;;;;;5082249;27;88054;-55
2023/09/06 02:07:47;;;;;;;1.80;1.37;;;30.20;47.30;;;;;;5081779;27;88242;-55
2023/09/06 02:10:15;;;;;;;2.17;1.47;;;30.20;47.40;;;;;;5082432;27;87637;-55
2023/09/06 02:12:44;;;;;;;1.90;1.30;;;30.20;47.40;;;;;;5082013;27;88676;-55
2023/09/06 02:15:14;;;;;;;1.40;1.30;;;30.10;47.30;;;;;;5082021;27;88036;-55
2023/09/06 02:17:43;;;;;;;1.63;1.40;;;30.20;47.40;;;;;;5079134;27;88829;-55
2023/09/06 02:20:17;;;;;;;2.03;1.27;;;30.10;47.30;;;;;;5081932;27;87909;-55
2023/09/06 02:22:46;;;;;;;3.17;1.67;;;30.10;47.30;;;;;;5078763;27;88391;-55
2023/09/06 02:25:15;;;;;;;1.87;1.67;;;30.10;48.00;;;;;;5081818;27;88352;-55
2023/09/06 02:27:43;;;;;;;1.93;1.23;;;30.10;47.40;;;;;;5082351;27;88781;-56
2023/09/06 02:30:13;;;;;;;3.53;1.80;;;30.10;47.50;;;;;;5082576;27;87356;-55
2023/09/06 02:32:41;;;;;;;2.87;1.90;;;30.10;47.40;;;;;;5078909;27;89647;-55
2023/09/06 02:35:09;;;;;;;2.83;1.80;;;30.10;47.40;;;;;;5081222;27;87949;-55
2023/09/06 02:37:37;;;;;;;5.43;1.70;;;30.10;47.40;;;;;;5082087;27;87728;-55
2023/09/06 02:40:10;;;;;;;2.00;1.60;;;30.10;47.50;;;;;;5082558;27;87503;-56
2023/09/06 02:42:38;;;;;;;4.13;2.23;;;30.10;47.50;;;;;;5082291;27;89795;-56
2023/09/06 02:45:09;;;;;;;3.10;2.00;;;30.10;47.50;;;;;;5081675;27;89637;-56
2023/09/06 02:47:48;;;;;;;3.20;1.77;;;30.10;47.50;;;;;;5082244;27;88786;-56
2023/09/06 02:50:17;;;;;;;4.80;1.90;;;30.10;47.60;;;;;;5081374;27;87600;-56
2023/09/06 02:52:46;;;;;;;2.93;2.13;;;30.00;47.50;;;;;;5081025;27;88469;-55
2023/09/06 02:55:14;;;;;;;4.13;2.20;;;30.00;47.50;;;;;;5081780;27;87447;-55
2023/09/06 02:57:42;;;;;;;6.50;1.67;;;30.00;47.50;;;;;;5081507;27;88868;-56
2023/09/06 03:00:20;;;;;;;2.70;1.97;;;30.00;47.60;;;;;;5082128;27;87276;-56
2023/09/06 03:02:50;;;;;;;8.47;2.50;;;30.00;47.60;;;;;;5079256;27;88598;-56
2023/09/06 03:05:20;;;;;;;2.40;1.93;;;30.00;47.60;;;;;;5078018;27;89033;-55
2023/09/06 03:07:53;;;;;;;3.37;2.43;;;30.00;47.60;;;;;;5078771;27;87825;-55
2023/09/06 03:10:23;;;;;;;3.70;2.57;;;30.00;47.60;;;;;;5075244;27;88032;-56
2023/09/06 03:12:55;;;;;;;4.03;2.67;;;30.00;47.60;;;;;;5078689;27;88585;-56
2023/09/06 03:15:23;;;;;;;3.93;2.30;;;29.90;47.60;;;;;;5075863;27;89152;-55
2023/09/06 03:17:53;;;;;;;4.10;2.23;;;29.90;47.60;;;;;;5078269;27;87728;-55
2023/09/06 03:20:33;;;;;;;7.97;3.00;;;29.90;47.70;;;;;;5078793;27;87577;-56
2023/09/06 03:23:01;;;;;;;4.43;2.27;;;29.90;47.60;;;;;;5078877;27;88328;-55
2023/09/06 03:25:32;;;;;;;2.77;2.27;;;29.90;47.70;;;;;;5079071;27;89044;-55
2023/09/06 03:28:01;;;;;;;3.33;2.27;;;29.90;47.70;;;;;;5078726;27;88260;-55
2023/09/06 03:30:30;;;;;;;3.73;2.33;;;29.90;47.70;;;;;;5078318;27;87994;-55
2023/09/06 03:32:59;;;;;;;3.03;2.50;;;29.90;47.80;;;;;;5078636;27;89124;-55
2023/09/06 03:35:27;;;;;;;4.17;2.60;;;29.90;47.80;;;;;;5078316;27;89198;-55
2023/09/06 03:37:55;;;;;;;4.17;2.47;;;29.90;47.80;;;;;;5079016;27;89285;-55
2023/09/06 03:40:34;;;;;;;2.23;2.03;;;29.90;47.80;;;;;;5079085;27;87693;-55
2023/09/06 03:43:14;;;;;;;4.10;2.33;;;29.90;47.80;;;;;;5078673;27;88730;-55
2023/09/06 03:45:44;;;;;;;2.80;2.30;;;29.90;47.80;;;;;;5078359;27;87477;-56
2023/09/06 03:48:17;;;;;;;2.90;2.00;;;29.90;48.50;;;;;;5077736;27;88861;-55
2023/09/06 03:50:46;;;;;;;2.70;1.93;;;29.90;47.90;;;;;;5078272;27;87519;-55
2023/09/06 03:53:14;;;;;;;4.17;1.67;;;29.90;47.90;;;;;;5078440;27;89832;-55
2023/09/06 03:55:42;;;;;;;3.50;1.83;;;29.90;47.90;;;;;;5078377;27;87699;-55
2023/09/06 03:58:11;;;;;;;3.30;2.30;;;29.90;47.90;;;;;;5078059;27;87532;-55
2023/09/06 04:00:43;;;;;;;6.97;1.50;;;29.90;47.90;;;;;;5077635;27;87928;-55
2023/09/06 04:03:12;;;;;;;1.93;1.40;;;29.90;47.90;;;;;;5076803;27;88452;-56
2023/09/06 04:05:44;;;;;;;3.67;2.07;;;29.80;47.80;;;;;;5078071;27;88068;-55
2023/09/06 04:08:17;;;;;;;3.20;1.80;;;29.80;47.80;;;;;;5078248;27;87892;-55
2023/09/06 04:10:46;;;;;;;2.47;1.93;;;29.80;47.90;;;;;;5078661;27;87937;-55
2023/09/06 04:13:14;;;;;;;2.13;1.77;;;29.80;47.90;;;;;;5077653;27;88610;-55
2023/09/06 04:15:43;;;;;;;1.40;1.27;;;29.80;47.90;;;;;;5077858;27;89056;-55
2023/09/06 04:18:13;;;;;;;5.03;1.77;;;29.80;47.90;;;;;;5086341;27;88111;-55
2023/09/06 04:20:46;;;;;;;5.07;1.70;;;29.80;47.90;;;;;;5096872;27;87671;-55
2023/09/06 04:23:14;;;;;;;2.43;1.80;;;29.80;48.00;;;;;;5101669;27;89695;-55
2023/09/06 04:25:44;;;;;;;2.20;1.77;;;29.80;48.00;;;;;;5100895;27;89149;-55
2023/09/06 04:28:13;;;;;;;2.73;1.90;;;29.80;48.00;;;;;;5101204;27;88688;-55
2023/09/06 04:30:42;;;;;;;1.77;1.67;;;29.80;48.00;;;;;;5085231;27;87621;-55
2023/09/06 04:33:12;;;;;;;2.33;1.77;;;29.80;48.00;;;;;;5086376;27;89760;-55
2023/09/06 04:35:43;;;;;;;1.67;1.50;;;29.80;48.00;;;;;;5085692;27;87563;-55
2023/09/06 04:38:11;;;;;;;3.73;1.47;;;29.80;48.10;;;;;;5101455;27;87718;-55
2023/09/06 04:40:42;;;;;;;2.40;1.53;;;29.80;48.10;;;;;;5101107;27;87645;-55
2023/09/06 04:43:10;;;;;;;1.87;1.63;;;29.70;48.10;;;;;;5100681;27;88758;-55
2023/09/06 04:45:38;;;;;;;7.23;1.40;;;29.80;48.20;;;;;;5101056;27;88069;-56
2023/09/06 04:48:08;;;;;;;1.87;1.70;;;29.70;48.10;;;;;;5093124;27;88764;-55
2023/09/06 04:50:37;;;;;;;2.20;1.40;;;29.70;48.20;;;;;;5079983;27;87888;-55
2023/09/06 04:53:07;;;;;;;2.07;1.50;;;29.70;48.20;;;;;;5080794;27;89922;-55
2023/09/06 04:55:36;;;;;;;1.83;1.10;;;29.70;48.20;;;;;;5080371;27;88062;-55
2023/09/06 04:58:04;;;;;;;1.33;1.17;;;29.70;48.20;;;;;;5080684;27;87637;-56
2023/09/06 05:00:33;;;;;;;1.20;1.10;;;29.70;48.20;;;;;;5080718;27;87227;-56
2023/09/06 05:03:01;;;;;;;1.30;1.20;;;29.70;48.20;;;;;;5080912;27;87423;-56
2023/09/06 05:05:29;;;;;;;1.50;1.40;;;29.70;48.90;;;;;;5080515;27;88030;-56
2023/09/06 05:07:58;;;;;;;1.63;1.07;;;29.70;48.90;;;;;;5080737;27;89063;-56
2023/09/06 05:10:27;;;;;;;1.63;1.03;;;29.70;48.30;;;;;;5080523;27;87716;-56
2023/09/06 05:12:55;;;;;;;1.67;1.47;;;29.60;48.30;;;;;;5080643;27;89595;-56
2023/09/06 05:15:23;;;;;;;4.53;1.30;;;29.60;48.30;;;;;;5081817;27;89027;-56
2023/09/06 05:17:51;;;;;;;1.10;1.00;;;29.60;48.30;;;;;;5083529;27;89746;-56
2023/09/06 05:20:27;;;;;;;2.50;1.30;;;29.60;48.30;;;;;;5084379;27;87372;-56
2023/09/06 05:22:56;;;;;;;1.47;1.10;;;29.60;48.20;;;;;;5083588;27;88541;-56
2023/09/06 05:25:24;;;;;;;2.00;1.40;;;29.70;48.30;;;;;;5097489;27;89253;-56
2023/09/06 05:27:56;;;;;;;1.50;1.20;;;29.70;48.30;;;;;;5104036;27;87831;-56
2023/09/06 05:30:24;;;;;;;1.80;1.33;;;29.70;48.20;;;;;;5091859;27;87546;-56
2023/09/06 05:32:53;;;;;;;1.53;1.23;;;29.80;48.30;;;;;;5084088;27;89582;-55
2023/09/06 05:35:21;;;;;;;1.93;1.20;;;29.80;48.30;;;;;;5083215;27;87246;-56
2023/09/06 05:37:49;;;;;;;1.20;1.10;;;29.80;48.80;;;;;;5083746;27;87715;-56
2023/09/06 05:40:22;;;;;;;1.63;1.23;;;29.80;48.20;;;;;;5082959;27;87938;-56
2023/09/06 05:42:50;;;;;;;1.47;1.23;;;29.80;48.20;;;;;;5083561;27;89651;-56
2023/09/06 05:45:20;;;;;;;1.67;1.17;;;29.90;48.20;;;;;;5082667;27;88140;-55
2023/09/06 05:47:48;;;;;;;1.27;1.10;;;29.90;48.20;;;;;;5083703;27;87718;-55
2023/09/06 05:50:16;;;;;;;1.57;1.20;;;29.90;48.20;;;;;;5084002;27;87310;-56
2023/09/06 05:52:45;;;;;;;1.70;1.40;;;29.90;48.10;;;;;;5083375;27;89618;-56
2023/09/06 05:55:13;;;;;;;2.33;1.60;;;29.90;48.10;;;;;;5066713;27;89113;-56
2023/09/06 05:57:41;;;;;;;1.43;1.20;;;29.90;48.10;;;;;;5063242;27;87734;-56
2023/09/06 06:00:15;;;;;;;1.53;0.93;;;30.00;48.10;;;;;;5062863;27;87496;-56
2023/09/06 06:02:45;;;;;;;1.63;1.00;;;30.00;48.10;;;;;;5062288;27;88536;-56
2023/09/06 06:05:14;;;;;;;1.40;1.30;;;30.00;48.10;;;;;;5062637;27;89126;-55
2023/09/06 06:07:43;;;;;;;1.23;1.10;;;30.10;48.10;;;;;;5076397;27;88626;-56
2023/09/06 06:10:11;;;;;;;1.67;1.10;;;30.00;48.10;;;;;;5083691;27;87659;-56
2023/09/06 06:12:39;;;;;;;1.93;1.40;;;30.10;48.10;;;;;;5083213;27;88646;-56
2023/09/06 06:15:08;;;;;;;1.63;1.10;;;30.10;48.10;;;;;;5083017;27;87827;-56
2023/09/06 06:17:36;;;;;;;1.50;1.27;;;30.10;48.10;;;;;;5070089;27;87461;-56
2023/09/06 06:20:07;;;;;;;2.33;1.23;;;30.10;48.00;;;;;;5062632;27;87722;-56
2023/09/06 06:22:37;;;;;;;2.30;1.13;;;30.10;48.00;;;;;;5062443;27;88498;-56
2023/09/06 06:25:07;;;;;;;1.87;1.17;;;30.10;48.00;;;;;;5084718;27;89284;-56
2023/09/06 06:27:35;;;;;;;1.17;1.07;;;30.10;48.00;;;;;;5103350;27;89016;-56
2023/09/06 06:30:05;;;;;;;1.53;1.10;;;30.10;48.00;;;;;;5102625;27;87954;-56
2023/09/06 06:32:33;;;;;;;1.40;1.03;;;30.10;48.00;;;;;;5103264;27;89450;-56
2023/09/06 06:35:05;;;;;;;1.83;1.17;;;30.10;48.00;;;;;;5103382;27;88088;-56
2023/09/06 06:37:35;;;;;;;1.67;1.20;;;30.20;48.10;;;;;;5103036;27;87924;-56
2023/09/06 06:40:05;;;;;;;2.23;0.83;;;30.20;48.70;;;;;;5103656;27;87634;-55
2023/09/06 06:42:33;;;;;;;1.30;1.20;;;30.10;48.00;;;;;;5102794;27;88528;-55
2023/09/06 06:45:01;;;;;;;1.20;1.10;;;30.10;48.00;;;;;;5091556;27;88071;-55
2023/09/06 06:47:29;;;;;;;1.33;1.13;;;30.20;48.10;;;;;;5082204;27;88785;-55
2023/09/06 06:50:03;;;;;;;0.90;0.90;;;30.10;48.10;;;;;;5082868;27;87497;-55
2023/09/06 06:52:33;;;;;;;1.97;1.37;;;30.20;48.30;;;;;;5081854;27;87566;-55
2023/09/06 06:55:03;;;;;;;1.33;1.10;;;;;;;;;;5081630;27;88576;-55
2023/09/06 06:57:33;;;;;;;1.07;0.97;;;30.20;47.50;;;;;;5081533;27;87531;-55
2023/09/06 07:00:02;;;;;;;2.03;1.30;;;30.20;48.00;;;;;;5082085;27;87654;-56
2023/09/06 07:02:30;;;;;;;1.47;0.80;;;30.20;48.00;;;;;;5082405;27;88671;-55
2023/09/06 07:04:58;;;;;;;1.80;1.10;;;30.20;48.00;;;;;;5082550;27;88789;-55
2023/09/06 07:07:26;;;;;;;2.10;1.30;;;30.20;48.00;;;;;;5082121;27;87764;-55
2023/09/06 07:09:55;;;;;;;1.90;1.27;;;30.20;48.00;;;;;;5082026;27;87565;-56
2023/09/06 07:12:24;;;;;;;1.73;1.07;;;30.20;48.00;;;;;;5081665;27;88540;-55
2023/09/06 07:14:52;;;;;;;2.70;1.40;;;30.20;48.00;;;;;;5068860;27;89060;-55
2023/09/06 07:17:21;;;;;;;1.27;1.03;;;30.20;48.00;;;;;;5079678;27;87725;-55
2023/09/06 07:19:49;;;;;;;2.13;1.57;;;30.30;48.00;;;;;;5079511;27;87905;-55
2023/09/06 07:22:18;;;;;;;1.53;1.07;;;30.30;48.00;;;;;;5080122;27;88950;-56
2023/09/06 07:24:46;;;;;;;2.43;1.50;;;30.30;48.00;;;;;;5080403;27;88068;-55
2023/09/06 07:27:14;;;;;;;0.90;0.90;;;30.30;48.00;;;;;;5073285;27;87741;-56
2023/09/06 07:29:44;;;;;;;1.50;1.30;;;30.30;48.00;;;;;;5080645;27;88427;-56
2023/09/06 07:32:12;;;;;;;1.50;0.90;;;30.30;48.00;;;;;;5080835;27;89612;-56
2023/09/06 07:34:40;;;;;;;2.37;1.50;;;30.30;48.00;;;;;;5078946;27;87808;-54
2023/09/06 07:37:08;;;;;;;1.20;1.10;;;30.30;48.00;;;;;;5081372;27;87763;-55
2023/09/06 07:39:36;;;;;;;2.00;1.70;;;30.30;48.70;;;;;;5080913;27;87632;-54
2023/09/06 07:42:05;;;;;;;3.37;1.40;;;30.30;48.00;;;;;;5073601;27;90361;-55
2023/09/06 07:44:33;;;;;;;2.80;1.20;;;30.30;48.00;;;;;;5058503;27;91186;-54
2023/09/06 07:47:03;;;;;;;1.93;1.30;;;30.30;48.10;;;;;;5078579;27;88677;-54
2023/09/06 07:49:31;;;;;;;3.50;1.37;;;30.30;48.10;;;;;;5081418;27;87592;-54
2023/09/06 07:52:04;;;;;;;2.13;1.47;;;30.30;48.00;;;;;;5081703;27;89652;-54
2023/09/06 07:54:33;;;;;;;2.90;1.20;;;30.30;48.10;;;;;;5081078;27;89193;-54
2023/09/06 07:57:01;;;;;;;6.60;2.10;;;30.30;48.10;;;;;;5081735;27;88931;-54
2023/09/06 07:59:29;;;;;;;4.60;1.60;;;30.30;48.10;;;;;;5081069;27;87425;-54
2023/09/06 08:01:57;;;;;;;6.37;1.70;;;30.30;48.10;;;;;;5081392;27;88586;-54
2023/09/06 08:04:26;;;;;;;2.57;1.50;;;30.30;48.10;;;;;;5080892;27;88729;-54
2023/09/06 08:06:55;;;;;;;2.13;1.40;;;30.30;48.20;;;;;;5080970;27;87272;-54
2023/09/06 08:09:24;;;;;;;2.90;1.87;;;30.30;48.20;;;;;;5080461;27;87875;-54
2023/09/06 08:11:52;;;;;;;3.80;2.10;;;30.20;48.10;;;;;;5080566;27;87718;-54
2023/09/06 08:14:21;;;;;;;3.23;1.97;;;30.30;48.20;;;;;;5080843;27;88125;-55
2023/09/06 08:16:49;;;;;;;5.13;1.97;;;30.30;48.20;;;;;;5081238;27;87913;-54
2023/09/06 08:19:17;;;;;;;6.43;3.17;;;30.20;48.20;;;;;;5080888;27;87594;-54
2023/09/06 08:21:46;;;;;;;7.13;2.90;;;30.20;48.20;;;;;;5081210;27;88522;-54
2023/09/06 08:24:17;;;;;;;4.37;2.00;;;30.20;48.20;;;;;;5081018;27;87981;-55
2023/09/06 08:26:47;;;;;;;6.20;1.87;;;30.20;48.20;;;;;;5081161;27;87415;-55
2023/09/06 08:29:15;;;;;;;4.03;1.80;;;30.20;48.30;;;;;;5080623;27;88461;-55
2023/09/06 08:31:43;;;;;;;5.63;2.10;;;30.20;48.30;;;;;;5080697;27;88738;-54
2023/09/06 08:34:12;;;;;;;4.70;2.20;;;30.20;48.30;;;;;;5080054;27;89030;-55
2023/09/06 08:36:40;;;;;;;7.90;2.93;;;30.20;48.30;;;;;;5080965;27;88686;-55
2023/09/06 08:39:10;;;;;;;5.00;1.93;;;30.20;48.40;;;;;;5081120;27;87657;-54
2023/09/06 08:41:38;;;;;;;8.17;1.80;;;30.20;49.00;;;;;;5081183;27;88390;-54
2023/09/06 08:44:06;;;;;;;7.77;2.50;;;30.20;48.40;;;;;;5081315;27;87527;-54
2023/09/06 08:46:36;;;;;;;6.00;2.20;;;30.20;48.40;;;;;;5080851;27;87736;-55
2023/09/06 08:49:04;;;;;;;4.43;1.33;;;30.20;48.40;;;;;;5081480;27;87606;-55
2023/09/06 08:51:35;;;;;;;2.13;1.40;;;30.20;48.40;;;;;;5085067;27;88578;-55
2023/09/06 08:54:04;;;;;;;7.27;2.03;;;30.20;48.40;;;;;;5084603;27;88110;-54
2023/09/06 08:56:34;;;;;;;3.30;1.50;;;30.20;48.40;;;;;;5084810;27;88988;-55
2023/09/06 08:59:02;;;;;;;7.33;1.83;;;30.20;48.40;;;;;;5084189;27;87862;-54
2023/09/06 09:01:31;;;;;;;7.30;2.10;;;30.20;48.40;;;;;;5083774;27;89739;-54
2023/09/06 09:04:00;;;;;;;2.77;2.20;;;30.20;48.50;;;;;;5083553;27;89154;-54
2023/09/06 09:06:29;;;;;;;3.00;1.50;;;30.20;48.50;;;;;;5083980;27;88689;-54
2023/09/06 09:09:16;;;;;;;3.43;1.63;;;30.20;48.50;;;;;;5084253;27;87634;-54
2023/09/06 09:11:46;;;;;;;3.60;1.73;;;30.20;48.50;;;;;;5083806;27;87568;-54
2023/09/06 09:14:21;;;;;;;2.93;1.73;;;30.20;49.10;;;;;;5084108;27;88033;-55
2023/09/06 09:16:55;;;;;;;2.53;1.73;;;30.20;48.50;;;;;;5084078;27;87619;-55
2023/09/06 09:19:24;;;;;;;2.43;1.13;;;30.20;48.50;;;;;;5083717;27;87700;-55
2023/09/06 09:21:52;;;;;;;1.87;1.10;;;30.30;48.60;;;;;;5083481;27;87459;-54
2023/09/06 09:24:27;;;;;;;3.37;1.83;;;30.30;48.60;;;;;;5082979;27;89087;-55
2023/09/06 09:26:57;;;;;;;1.70;1.33;;;30.30;48.70;;;;;;5084466;27;89765;-54
2023/09/06 09:29:25;;;;;;;5.03;1.73;;;30.30;48.60;;;;;;5084489;27;87641;-54
2023/09/06 09:31:53;;;;;;;5.23;1.67;;;30.30;48.60;;;;;;5083806;27;89582;-54
2023/09/06 09:34:21;;;;;;;6.77;1.50;;;30.40;49.40;;;;;;5083351;27;88358;-54
2023/09/06 09:36:52;;;;;;;3.63;1.37;;;30.40;48.70;;;;;;5083706;27;88786;-54
2023/09/06 09:39:21;;;;;;;4.83;1.60;;;30.40;48.70;;;;;;5084201;27;87681;-54
2023/09/06 09:41:50;;;;;;;1.90;1.47;;;30.40;48.70;;;;;;5084047;27;89792;-54
2023/09/06 09:44:28;;;;;;;7.13;1.87;;;30.40;48.70;;;;;;5083285;27;88107;-54
2023/09/06 09:46:57;;;;;;;2.83;1.83;;;30.40;48.70;;;;;;5083202;27;87463;-55
2023/09/06 09:49:25;;;;;;;3.17;1.53;;;30.40;48.70;;;;;;5083038;27;88472;-54
2023/09/06 09:51:54;;;;;;;2.97;1.50;;;30.40;49.30;;;;;;5082502;27;88521;-54
2023/09/06 09:54:22;;;;;;;3.03;1.47;;;30.40;48.60;;;;;;5083227;27;87466;-54
2023/09/06 09:56:56;;;;;;;1.77;1.33;;;30.50;48.70;;;;;;5082722;27;88760;-54
2023/09/06 09:59:24;;;;;;;3.27;2.07;;;30.50;48.60;;;;;;5084035;27;87554;-55
2023/09/06 10:01:54;;;;;;;1.70;1.30;;;30.50;48.60;;;;;;5082810;27;87289;-54
2023/09/06 10:04:23;;;;;;;1.63;1.27;;;30.50;48.50;;;;;;5083860;27;89149;-54
2023/09/06 10:06:51;;;;;;;1.63;1.20;;;30.50;48.50;;;;;;5083400;27;87888;-54
2023/09/06 10:09:19;;;;;;;2.57;1.17;;;30.50;48.50;;;;;;5083262;27;87391;-54
2023/09/06 10:11:47;;;;;;;2.13;1.70;;;30.50;48.40;;;;;;5082669;27;88422;-54
2023/09/06 10:14:15;;;;;;;1.50;1.30;;;30.50;48.40;;;;;;5082539;27;88957;-54
2023/09/06 10:16:43;;;;;;;1.63;1.30;;;30.50;48.40;;;;;;5083151;27;88690;-54
2023/09/06 10:19:12;;;;;;;1.40;1.00;;;30.60;48.40;;;;;;5082717;27;87522;-54
2023/09/06 10:21:41;;;;;;;1.93;1.00;;;30.60;49.00;;;;;;5082414;27;89600;-54
2023/09/06 10:24:16;;;;;;;1.17;1.10;;;30.60;49.00;;;;;;5082666;27;88193;-54
2023/09/06 10:26:44;;;;;;;2.10;1.30;;;30.60;49.00;;;;;;5082668;27;87807;-54
2023/09/06 10:29:12;;;;;;;1.50;1.30;;;30.60;48.20;;;;;;5083358;27;87616;-54
2023/09/06 10:31:47;;;;;;;1.57;1.23;;;30.60;48.20;;;;;;5082961;27;89719;-54
2023/09/06 10:34:17;;;;;;;1.67;1.00;;;30.60;48.10;;;;;;5082605;27;87707;-54
2023/09/06 10:36:53;;;;;;;6.70;1.30;;;30.60;48.00;;;;;;5082430;27;87809;-53
2023/09/06 10:39:22;;;;;;;3.40;1.00;;;30.70;48.00;;;;;;5082238;27;88000;-54
2023/09/06 10:42:30;;;;;;;1.83;1.20;;;30.70;48.60;;;;;;5082601;27;89658;-55
2023/09/06 10:45:14;;;;;;;1.43;1.30;;;30.60;47.90;;;;;;5082689;27;88069;-53
2023/09/06 10:47:42;;;;;;;1.17;1.03;;;30.70;47.90;;;;;;5081978;27;88170;-54
2023/09/06 10:50:16;;;;;;;3.73;1.27;;;30.70;47.90;;;;;;5082328;27;87668;-55
2023/09/06 10:52:46;;;;;;;1.30;1.10;;;30.80;47.90;;;;;;5082067;27;89539;-56
2023/09/06 10:55:16;;;;;;;1.63;1.27;;;30.80;47.90;;;;;;5082052;27;87984;-53
2023/09/06 10:57:54;;;;;;;1.30;1.20;;;30.80;47.80;;;;;;5081919;27;87703;-54
2023/09/06 11:00:25;;;;;;;2.43;1.50;;;30.80;47.80;;;;;;5082360;27;87622;-54
2023/09/06 11:03:13;;;;;;;1.47;1.30;;;30.80;47.70;;;;;;5082407;27;88596;-54
2023/09/06 11:05:43;;;;;;;2.10;1.10;;;30.80;47.70;;;;;;5082200;27;88870;-54
2023/09/06 11:08:22;;;;;;;1.70;1.60;;;30.90;47.70;;;;;;5082177;27;88779;-54
2023/09/06 11:10:50;;;;;;;3.53;1.43;;;30.90;47.70;;;;;;5082237;27;87538;-54
2023/09/06 11:13:19;;;;;;;2.33;1.70;;;30.90;47.60;;;;;;5080540;27;88523;-54
2023/09/06 11:15:50;;;;;;;1.37;1.27;;;30.90;47.60;;;;;;5082223;27;88280;-54
2023/09/06 11:18:18;;;;;;;1.80;1.30;;;30.90;47.60;;;;;;5081515;27;89172;-53
2023/09/06 11:20:51;;;;;;;4.57;1.40;;;31.00;47.60;;;;;;5081927;27;87650;-54
2023/09/06 11:23:19;;;;;;;1.60;1.50;;;31.00;47.60;;;;;;5082309;27;88457;-55
2023/09/06 11:25:47;;;;;;;1.23;1.13;;;31.00;47.50;;;;;;5081636;27;87289;-55
2023/09/06 11:28:16;;;;;;;2.27;1.70;;;31.00;47.50;;;;;;5081885;27;88778;-54
2023/09/06 11:30:46;;;;;;;3.10;1.40;;;31.00;47.50;;;;;;5081538;27;87946;-54
2023/09/06 11:33:16;;;;;;;5.43;1.30;;;31.10;47.50;;;;;;5081682;27;89776;-54
2023/09/06 11:35:48;;;;;;;3.77;1.33;;;31.10;47.50;;;;;;5081389;27;88269;-55
2023/09/06 11:38:20;;;;;;;2.63;1.90;;;31.10;47.50;;;;;;5081363;27;87623;-54
2023/09/06 11:40:48;;;;;;;2.47;1.60;;;31.10;47.50;;;;;;5081053;27;87844;-54
2023/09/06 11:43:19;;;;;;;2.60;1.53;;;31.20;47.50;;;;;;5081277;27;88509;-54
2023/09/06 11:45:51;;;;;;;2.57;1.57;;;31.20;47.50;;;;;;5082118;27;89073;-54
2023/09/06 11:48:24;;;;;;;1.60;1.43;;;31.20;47.50;;;;;;5081988;27;88908;-54
2023/09/06 11:50:58;;;;;;;1.63;1.20;;;31.20;47.60;;;;;;5081941;27;87534;-54
2023/09/06 11:53:27;;;;;;;1.43;1.33;;;31.20;47.60;;;;;;5082220;27;89911;-54
2023/09/06 11:55:59;;;;;;;2.37;1.30;;;31.20;47.60;;;;;;5081538;27;89009;-54
2023/09/06 11:58:29;;;;;;;3.20;1.50;;;31.30;47.60;;;;;;5081583;27;88743;-54
2023/09/06 12:01:01;;;;;;;1.80;1.37;;;31.30;47.60;;;;;;5081496;27;87947;-54
2023/09/06 12:03:33;;;;;;;2.87;1.60;;;31.30;47.60;;;;;;5081270;27;88036;-54
2023/09/06 12:06:05;;;;;;;3.93;1.50;;;31.30;47.60;;;;;;5080864;27;88077;-55
2023/09/06 12:08:35;;;;;;;1.80;1.30;;;31.40;47.60;;;;;;5081541;27;88700;-54
2023/09/06 12:11:08;;;;;;;2.20;1.40;;;31.40;47.60;;;;;;5081140;27;87763;-54
2023/09/06 12:13:37;;;;;;;0.97;0.93;;;31.40;47.60;;;;;;5081007;27;88539;-54
2023/09/06 12:16:06;;;;;;;1.67;1.40;;;31.40;47.60;;;;;;5081384;27;88046;-54
2023/09/06 12:18:34;;;;;;;2.67;1.57;;;31.40;47.70;;;;;;5081204;27;87877;-54
2023/09/06 12:21:04;;;;;;;1.33;1.17;;;31.40;47.60;;;;;;5080409;27;87908;-54
2023/09/06 12:23:33;;;;;;;1.50;1.40;;;31.50;47.70;;;;;;5080676;27;87537;-54
2023/09/06 12:26:06;;;;;;;1.20;1.03;;;31.50;47.60;;;;;;5080977;27;88065;-54
2023/09/06 12:28:34;;;;;;;4.60;1.40;;;31.50;47.50;;;;;;5080764;27;87740;-54
2023/09/06 12:31:03;;;;;;;2.93;1.13;;;31.50;47.50;;;;;;5080806;27;87637;-55
2023/09/06 12:33:46;;;;;;;1.47;1.33;;;31.50;47.40;;;;;;5080921;27;89678;-54
2023/09/06 12:36:16;;;;;;;1.60;1.10;;;31.50;47.40;;;;;;5081031;27;88156;-54
2023/09/06 12:38:45;;;;;;;1.63;1.00;;;31.60;47.40;;;;;;5081203;27;88999;-54
2023/09/06 12:41:14;;;;;;;3.77;1.03;;;31.60;47.30;;;;;;5080447;27;87670;-54
2023/09/06 12:43:42;;;;;;;1.67;1.20;;;31.60;47.10;;;;;;5080356;27;88614;-54
2023/09/06 12:46:12;;;;;;;1.50;1.17;;;31.60;47.00;;;;;;5080105;27;89020;-54
2023/09/06 12:48:42;;;;;;;1.47;0.97;;;31.60;47.00;;;;;;5080263;27;88654;-54
2023/09/06 12:51:11;;;;;;;1.63;1.13;;;31.60;47.00;;;;;;5081044;27;87655;-55
2023/09/06 12:53:39;;;;;;;1.40;1.30;;;31.60;46.90;;;;;;5080847;27;88699;-55
2023/09/06 12:56:09;;;;;;;1.10;1.00;;;31.70;47.00;;;;;;5080086;27;87577;-54
2023/09/06 12:58:43;;;;;;;1.73;1.17;;;31.70;46.90;;;;;;5080691;27;87688;-54
2023/09/06 13:01:11;;;;;;;2.57;1.13;;;31.70;46.90;;;;;;5080373;27;87504;-54